sensor_id;sensor_type;location;lat;lon;timestamp;temperature;humidity
43627;DHT22;29217;52.586;13.442;2023-06-19T00:00:57;15.50;99.90
43627;DHT22;29217;52.586;13.442;2023-06-19T00:03:22;15.60;99.90
43627;DHT22;29217;52.586;13.442;2023-06-19T00:05:48;15.50;99.90
43627;DHT22;29217;52.586;13.442;2023-06-19T00:08:13;15.50;99.90
43627;DHT22;29217;52.586;13.442;2023-06-19T00:10:39;15.50;99.90
43627;DHT22;29217;52.586;13.442;2023-06-19T00:13:05;15.40;99.90
43627;DHT22;29217;52.586;13.442;2023-06-19T00:15:30;15.50;99.90
43627;DHT22;29217;52.586;13.442;2023-06-19T00:17:56;15.40;99.90
43627;DHT22;29217;52.586;13.442;2023-06-19T00:20:23;15.40;99.90
43627;DHT22;29217;52.586;13.442;2023-06-19T00:22:49;15.40;99.90
43627;DHT22;29217;52.586;13.442;2023-06-19T00:25:19;15.30;99.90
43627;DHT22;29217;52.586;13.442;2023-06-19T00:27:46;15.30;99.90
43627;DHT22;29217;52.586;13.442;2023-06-19T00:30:12;15.30;99.90
43627;DHT22;29217;52.586;13.442;2023-06-19T00:32:38;15.30;99.90
43627;DHT22;29217;52.586;13.442;2023-06-19T00:35:13;15.20;99.90
43627;DHT22;29217;52.586;13.442;2023-06-19T00:37:39;15.10;99.90
43627;DHT22;29217;52.586;13.442;2023-06-19T00:40:07;15.20;99.90
43627;DHT22;29217;52.586;13.442;2023-06-19T00:42:34;15.30;99.90
43627;DHT22;29217;52.586;13.442;2023-06-19T00:44:59;15.30;99.90
43627;DHT22;29217;52.586;13.442;2023-06-19T00:47:25;15.30;99.90
43627;DHT22;29217;52.586;13.442;2023-06-19T00:49:51;15.30;99.90
43627;DHT22;29217;52.586;13.442;2023-06-19T00:52:17;15.30;99.90
43627;DHT22;29217;52.586;13.442;2023-06-19T00:54:43;15.40;99.90
43627;DHT22;29217;52.586;13.442;2023-06-19T00:57:09;15.40;99.90
43627;DHT22;29217;52.586;13.442;2023-06-19T00:59:36;15.40;99.90
43627;DHT22;29217;52.586;13.442;2023-06-19T01:02:01;15.40;99.90
43627;DHT22;29217;52.586;13.442;2023-06-19T01:04:28;15.40;99.90
43627;DHT22;29217;52.586;13.442;2023-06-19T01:06:57;15.50;99.90
43627;DHT22;29217;52.586;13.442;2023-06-19T01:09:31;15.60;99.90
43627;DHT22;29217;52.586;13.442;2023-06-19T01:12:04;15.70;99.90
43627;DHT22;29217;52.586;13.442;2023-06-19T01:14:40;15.70;99.90
43627;DHT22;29217;52.586;13.442;2023-06-19T01:17:09;15.70;99.90
43627;DHT22;29217;52.586;13.442;2023-06-19T01:19:35;15.70;99.90
43627;DHT22;29217;52.586;13.442;2023-06-19T01:22:02;15.80;99.90
43627;DHT22;29217;52.586;13.442;2023-06-19T01:24:29;15.90;99.90
43627;DHT22;29217;52.586;13.442;2023-06-19T01:26:54;15.90;99.90
43627;DHT22;29217;52.586;13.442;2023-06-19T01:29:21;15.90;99.90
43627;DHT22;29217;52.586;13.442;2023-06-19T01:31:57;16.00;99.90
43627;DHT22;29217;52.586;13.442;2023-06-19T01:34:25;16.00;99.90
43627;DHT22;29217;52.586;13.442;2023-06-19T01:36:53;16.00;99.90
43627;DHT22;29217;52.586;13.442;2023-06-19T01:39:22;16.00;99.90
43627;DHT22;29217;52.586;13.442;2023-06-19T01:41:48;16.00;99.90
43627;DHT22;29217;52.586;13.442;2023-06-19T01:44:15;16.00;99.90
43627;DHT22;29217;52.586;13.442;2023-06-19T01:46:41;16.00;99.90
43627;DHT22;29217;52.586;13.442;2023-06-19T01:49:08;15.90;99.90
43627;DHT22;29217;52.586;13.442;2023-06-19T01:51:35;15.90;99.90
43627;DHT22;29217;52.586;13.442;2023-06-19T01:54:01;15.90;99.90
43627;DHT22;29217;52.586;13.442;2023-06-19T01:56:26;15.90;99.90
43627;DHT22;29217;52.586;13.442;2023-06-19T01:58:52;15.90;99.90
43627;DHT22;29217;52.586;13.442;2023-06-19T02:01:20;15.90;99.90
43627;DHT22;29217;52.586;13.442;2023-06-19T02:03:46;15.90;99.90
43627;DHT22;29217;52.586;13.442;2023-06-19T02:06:11;15.90;99.90
43627;DHT22;29217;52.586;13.442;2023-06-19T02:08:37;15.90;99.90
43627;DHT22;29217;52.586;13.442;2023-06-19T02:11:03;15.90;99.90
43627;DHT22;29217;52.586;13.442;2023-06-19T02:13:29;15.90;99.90
43627;DHT22;29217;52.586;13.442;2023-06-19T02:15:54;15.80;99.90
43627;DHT22;29217;52.586;13.442;2023-06-19T02:18:20;15.90;99.90
43627;DHT22;29217;52.586;13.442;2023-06-19T02:20:45;15.90;99.90
43627;DHT22;29217;52.586;13.442;2023-06-19T02:23:11;15.90;99.90
43627;DHT22;29217;52.586;13.442;2023-06-19T02:25:36;15.90;99.90
43627;DHT22;29217;52.586;13.442;2023-06-19T02:28:02;16.00;99.90
43627;DHT22;29217;52.586;13.442;2023-06-19T02:30:29;16.00;99.90
43627;DHT22;29217;52.586;13.442;2023-06-19T02:32:54;16.00;99.90
43627;DHT22;29217;52.586;13.442;2023-06-19T02:35:20;16.00;99.90
43627;DHT22;29217;52.586;13.442;2023-06-19T02:37:45;16.00;99.90
43627;DHT22;29217;52.586;13.442;2023-06-19T02:40:13;16.00;99.90
43627;DHT22;29217;52.586;13.442;2023-06-19T02:42:39;16.00;99.90
43627;DHT22;29217;52.586;13.442;2023-06-19T02:45:05;16.00;99.90
43627;DHT22;29217;52.586;13.442;2023-06-19T02:47:32;16.00;99.90
43627;DHT22;29217;52.586;13.442;2023-06-19T02:50:01;16.10;99.90
43627;DHT22;29217;52.586;13.442;2023-06-19T02:52:28;16.00;99.90
43627;DHT22;29217;52.586;13.442;2023-06-19T02:54:54;16.00;99.90
43627;DHT22;29217;52.586;13.442;2023-06-19T02:57:19;16.00;99.90
43627;DHT22;29217;52.586;13.442;2023-06-19T02:59:45;16.00;99.90
43627;DHT22;29217;52.586;13.442;2023-06-19T03:02:11;16.10;99.90
43627;DHT22;29217;52.586;13.442;2023-06-19T03:04:37;16.10;99.90
43627;DHT22;29217;52.586;13.442;2023-06-19T03:07:02;16.10;99.90
43627;DHT22;29217;52.586;13.442;2023-06-19T03:09:28;16.10;99.90
43627;DHT22;29217;52.586;13.442;2023-06-19T03:11:54;16.10;99.90
43627;DHT22;29217;52.586;13.442;2023-06-19T03:14:20;16.10;99.90
43627;DHT22;29217;52.586;13.442;2023-06-19T03:16:46;16.10;99.90
43627;DHT22;29217;52.586;13.442;2023-06-19T03:19:12;16.20;99.90
43627;DHT22;29217;52.586;13.442;2023-06-19T03:21:38;16.20;99.90
43627;DHT22;29217;52.586;13.442;2023-06-19T03:24:04;16.20;99.90
43627;DHT22;29217;52.586;13.442;2023-06-19T03:26:29;16.30;99.90
43627;DHT22;29217;52.586;13.442;2023-06-19T03:28:55;16.30;99.90
43627;DHT22;29217;52.586;13.442;2023-06-19T03:31:20;16.40;99.90
43627;DHT22;29217;52.586;13.442;2023-06-19T03:33:46;16.40;99.90
43627;DHT22;29217;52.586;13.442;2023-06-19T03:36:12;16.50;99.90
43627;DHT22;29217;52.586;13.442;2023-06-19T03:38:37;16.50;99.90
43627;DHT22;29217;52.586;13.442;2023-06-19T03:41:03;16.60;99.90
43627;DHT22;29217;52.586;13.442;2023-06-19T03:43:29;16.60;99.90
43627;DHT22;29217;52.586;13.442;2023-06-19T03:45:54;16.70;99.90
43627;DHT22;29217;52.586;13.442;2023-06-19T03:48:20;16.70;99.90
43627;DHT22;29217;52.586;13.442;2023-06-19T03:50:45;16.80;99.90
43627;DHT22;29217;52.586;13.442;2023-06-19T03:53:11;16.80;99.90
43627;DHT22;29217;52.586;13.442;2023-06-19T03:55:37;16.90;99.90
43627;DHT22;29217;52.586;13.442;2023-06-19T03:58:02;16.90;99.90
43627;DHT22;29217;52.586;13.442;2023-06-19T04:00:28;17.00;99.90
43627;DHT22;29217;52.586;13.442;2023-06-19T04:02:53;17.10;99.90
43627;DHT22;29217;52.586;13.442;2023-06-19T04:05:19;17.10;99.90
43627;DHT22;29217;52.586;13.442;2023-06-19T04:07:47;17.20;99.90
43627;DHT22;29217;52.586;13.442;2023-06-19T04:10:13;17.20;99.90
43627;DHT22;29217;52.586;13.442;2023-06-19T04:12:40;17.20;99.90
43627;DHT22;29217;52.586;13.442;2023-06-19T04:15:07;17.20;99.90
43627;DHT22;29217;52.586;13.442;2023-06-19T04:17:32;17.20;99.90
43627;DHT22;29217;52.586;13.442;2023-06-19T04:19:58;17.20;99.90
43627;DHT22;29217;52.586;13.442;2023-06-19T04:22:24;17.30;99.90
43627;DHT22;29217;52.586;13.442;2023-06-19T04:24:50;17.30;99.90
43627;DHT22;29217;52.586;13.442;2023-06-19T04:27:15;17.30;99.90
43627;DHT22;29217;52.586;13.442;2023-06-19T04:29:41;17.30;99.90
43627;DHT22;29217;52.586;13.442;2023-06-19T04:32:06;17.30;99.90
43627;DHT22;29217;52.586;13.442;2023-06-19T04:34:37;17.40;99.90
43627;DHT22;29217;52.586;13.442;2023-06-19T04:37:02;17.40;99.90
43627;DHT22;29217;52.586;13.442;2023-06-19T04:39:28;17.50;99.90
43627;DHT22;29217;52.586;13.442;2023-06-19T04:41:53;17.40;99.90
43627;DHT22;29217;52.586;13.442;2023-06-19T04:44:19;17.50;99.90
43627;DHT22;29217;52.586;13.442;2023-06-19T04:46:45;17.50;99.90
43627;DHT22;29217;52.586;13.442;2023-06-19T04:49:10;17.50;99.90
43627;DHT22;29217;52.586;13.442;2023-06-19T04:51:36;17.60;99.90
43627;DHT22;29217;52.586;13.442;2023-06-19T04:54:02;17.60;99.90
43627;DHT22;29217;52.586;13.442;2023-06-19T04:56:28;17.60;99.90
43627;DHT22;29217;52.586;13.442;2023-06-19T04:58:54;17.70;99.90
43627;DHT22;29217;52.586;13.442;2023-06-19T05:01:24;17.70;99.90
43627;DHT22;29217;52.586;13.442;2023-06-19T05:03:54;17.80;99.90
43627;DHT22;29217;52.586;13.442;2023-06-19T05:06:22;17.80;99.90
43627;DHT22;29217;52.586;13.442;2023-06-19T05:08:47;17.80;99.90
43627;DHT22;29217;52.586;13.442;2023-06-19T05:11:13;17.80;99.90
43627;DHT22;29217;52.586;13.442;2023-06-19T05:13:39;17.80;99.90
43627;DHT22;29217;52.586;13.442;2023-06-19T05:16:04;17.90;99.90
43627;DHT22;29217;52.586;13.442;2023-06-19T05:18:30;17.90;99.90
43627;DHT22;29217;52.586;13.442;2023-06-19T05:20:56;18.00;99.90
43627;DHT22;29217;52.586;13.442;2023-06-19T05:23:21;17.90;99.90
43627;DHT22;29217;52.586;13.442;2023-06-19T05:25:47;18.00;99.90
43627;DHT22;29217;52.586;13.442;2023-06-19T05:28:12;18.00;99.90
43627;DHT22;29217;52.586;13.442;2023-06-19T05:30:38;18.00;99.90
43627;DHT22;29217;52.586;13.442;2023-06-19T05:33:04;18.00;99.90
43627;DHT22;29217;52.586;13.442;2023-06-19T05:35:29;18.00;99.90
43627;DHT22;29217;52.586;13.442;2023-06-19T05:37:55;18.00;99.90
43627;DHT22;29217;52.586;13.442;2023-06-19T05:40:21;18.10;99.90
43627;DHT22;29217;52.586;13.442;2023-06-19T05:42:47;18.10;99.90
43627;DHT22;29217;52.586;13.442;2023-06-19T05:45:13;18.10;99.90
43627;DHT22;29217;52.586;13.442;2023-06-19T05:47:38;18.10;99.90
43627;DHT22;29217;52.586;13.442;2023-06-19T05:50:04;18.20;99.90
43627;DHT22;29217;52.586;13.442;2023-06-19T05:52:30;18.20;99.90
43627;DHT22;29217;52.586;13.442;2023-06-19T05:54:56;18.20;99.90
43627;DHT22;29217;52.586;13.442;2023-06-19T05:57:23;18.30;99.90
43627;DHT22;29217;52.586;13.442;2023-06-19T05:59:49;18.20;99.90
43627;DHT22;29217;52.586;13.442;2023-06-19T06:02:16;18.30;99.90
43627;DHT22;29217;52.586;13.442;2023-06-19T06:04:42;18.30;99.90
43627;DHT22;29217;52.586;13.442;2023-06-19T06:07:08;18.40;99.90
43627;DHT22;29217;52.586;13.442;2023-06-19T06:09:34;18.40;99.90
43627;DHT22;29217;52.586;13.442;2023-06-19T06:11:59;18.40;99.90
43627;DHT22;29217;52.586;13.442;2023-06-19T06:14:26;18.50;99.90
43627;DHT22;29217;52.586;13.442;2023-06-19T06:16:52;18.50;99.90
43627;DHT22;29217;52.586;13.442;2023-06-19T06:19:19;18.50;99.90
43627;DHT22;29217;52.586;13.442;2023-06-19T06:21:45;18.50;99.90
43627;DHT22;29217;52.586;13.442;2023-06-19T06:24:10;18.50;99.90
43627;DHT22;29217;52.586;13.442;2023-06-19T06:26:36;18.50;99.90
43627;DHT22;29217;52.586;13.442;2023-06-19T06:29:02;18.60;99.90
43627;DHT22;29217;52.586;13.442;2023-06-19T06:31:28;18.60;99.90
43627;DHT22;29217;52.586;13.442;2023-06-19T06:33:53;18.70;99.90
43627;DHT22;29217;52.586;13.442;2023-06-19T06:36:19;18.70;99.90
43627;DHT22;29217;52.586;13.442;2023-06-19T06:38:45;18.80;99.90
43627;DHT22;29217;52.586;13.442;2023-06-19T06:41:10;18.80;99.90
43627;DHT22;29217;52.586;13.442;2023-06-19T06:43:36;18.80;99.90
43627;DHT22;29217;52.586;13.442;2023-06-19T06:46:03;18.90;99.90
43627;DHT22;29217;52.586;13.442;2023-06-19T06:48:29;18.90;99.90
43627;DHT22;29217;52.586;13.442;2023-06-19T06:50:55;18.90;99.90
43627;DHT22;29217;52.586;13.442;2023-06-19T06:53:27;18.90;99.90
43627;DHT22;29217;52.586;13.442;2023-06-19T06:55:57;19.00;99.90
43627;DHT22;29217;52.586;13.442;2023-06-19T06:58:23;19.00;99.90
43627;DHT22;29217;52.586;13.442;2023-06-19T07:00:49;19.10;99.90
43627;DHT22;29217;52.586;13.442;2023-06-19T07:03:16;19.10;99.90
43627;DHT22;29217;52.586;13.442;2023-06-19T07:05:42;19.20;99.90
43627;DHT22;29217;52.586;13.442;2023-06-19T07:08:07;19.30;99.90
43627;DHT22;29217;52.586;13.442;2023-06-19T07:10:33;19.40;99.90
43627;DHT22;29217;52.586;13.442;2023-06-19T07:12:58;19.40;99.90
43627;DHT22;29217;52.586;13.442;2023-06-19T07:15:24;19.50;99.90
43627;DHT22;29217;52.586;13.442;2023-06-19T07:17:50;19.60;99.90
43627;DHT22;29217;52.586;13.442;2023-06-19T07:20:16;19.70;99.90
43627;DHT22;29217;52.586;13.442;2023-06-19T07:22:43;19.80;99.90
43627;DHT22;29217;52.586;13.442;2023-06-19T07:25:10;19.90;99.90
43627;DHT22;29217;52.586;13.442;2023-06-19T07:27:36;19.90;99.90
43627;DHT22;29217;52.586;13.442;2023-06-19T07:30:02;20.00;99.90
43627;DHT22;29217;52.586;13.442;2023-06-19T07:32:27;20.10;99.90
43627;DHT22;29217;52.586;13.442;2023-06-19T07:34:53;20.10;99.90
43627;DHT22;29217;52.586;13.442;2023-06-19T07:37:19;20.20;99.90
43627;DHT22;29217;52.586;13.442;2023-06-19T07:39:46;20.20;99.90
43627;DHT22;29217;52.586;13.442;2023-06-19T07:42:13;20.20;99.90
43627;DHT22;29217;52.586;13.442;2023-06-19T07:44:40;20.30;99.90
43627;DHT22;29217;52.586;13.442;2023-06-19T07:47:06;20.30;99.90
43627;DHT22;29217;52.586;13.442;2023-06-19T07:49:32;20.40;99.90
43627;DHT22;29217;52.586;13.442;2023-06-19T07:51:57;20.50;99.90
43627;DHT22;29217;52.586;13.442;2023-06-19T07:54:23;20.50;99.90
43627;DHT22;29217;52.586;13.442;2023-06-19T07:56:48;20.60;99.90
43627;DHT22;29217;52.586;13.442;2023-06-19T07:59:14;20.70;99.90
43627;DHT22;29217;52.586;13.442;2023-06-19T08:01:40;20.70;99.90
43627;DHT22;29217;52.586;13.442;2023-06-19T08:04:06;20.70;99.90
43627;DHT22;29217;52.586;13.442;2023-06-19T08:06:32;20.80;99.90
43627;DHT22;29217;52.586;13.442;2023-06-19T08:08:57;20.80;99.90
43627;DHT22;29217;52.586;13.442;2023-06-19T08:11:23;20.80;99.90
43627;DHT22;29217;52.586;13.442;2023-06-19T08:13:49;20.90;99.90
43627;DHT22;29217;52.586;13.442;2023-06-19T08:16:14;20.90;99.90
43627;DHT22;29217;52.586;13.442;2023-06-19T08:18:40;20.90;99.90
43627;DHT22;29217;52.586;13.442;2023-06-19T08:21:05;20.90;99.90
43627;DHT22;29217;52.586;13.442;2023-06-19T08:23:31;20.90;99.90
43627;DHT22;29217;52.586;13.442;2023-06-19T08:25:57;20.90;99.90
43627;DHT22;29217;52.586;13.442;2023-06-19T08:28:22;20.90;99.90
43627;DHT22;29217;52.586;13.442;2023-06-19T08:30:48;20.90;99.90
43627;DHT22;29217;52.586;13.442;2023-06-19T08:33:14;21.00;99.90
43627;DHT22;29217;52.586;13.442;2023-06-19T08:35:40;21.00;99.90
43627;DHT22;29217;52.586;13.442;2023-06-19T08:38:05;21.10;99.90
43627;DHT22;29217;52.586;13.442;2023-06-19T08:40:32;21.10;99.90
43627;DHT22;29217;52.586;13.442;2023-06-19T08:42:58;21.10;99.90
43627;DHT22;29217;52.586;13.442;2023-06-19T08:45:26;21.10;99.90
43627;DHT22;29217;52.586;13.442;2023-06-19T08:47:58;21.10;99.90
43627;DHT22;29217;52.586;13.442;2023-06-19T08:50:24;21.10;99.90
43627;DHT22;29217;52.586;13.442;2023-06-19T08:52:50;21.20;99.90
43627;DHT22;29217;52.586;13.442;2023-06-19T08:55:15;21.20;99.90
43627;DHT22;29217;52.586;13.442;2023-06-19T08:57:41;21.20;99.90
43627;DHT22;29217;52.586;13.442;2023-06-19T09:00:07;21.30;99.90
43627;DHT22;29217;52.586;13.442;2023-06-19T09:02:44;21.30;99.90
43627;DHT22;29217;52.586;13.442;2023-06-19T09:05:14;21.40;99.90
43627;DHT22;29217;52.586;13.442;2023-06-19T09:07:40;21.30;99.90
43627;DHT22;29217;52.586;13.442;2023-06-19T09:10:17;21.30;99.90
43627;DHT22;29217;52.586;13.442;2023-06-19T09:12:44;21.30;99.90
43627;DHT22;29217;52.586;13.442;2023-06-19T09:15:14;21.30;99.90
43627;DHT22;29217;52.586;13.442;2023-06-19T09:17:40;21.30;99.90
43627;DHT22;29217;52.586;13.442;2023-06-19T09:20:06;21.30;99.90
43627;DHT22;29217;52.586;13.442;2023-06-19T09:22:32;21.30;99.90
43627;DHT22;29217;52.586;13.442;2023-06-19T09:25:02;21.30;99.90
43627;DHT22;29217;52.586;13.442;2023-06-19T09:27:33;21.40;99.90
43627;DHT22;29217;52.586;13.442;2023-06-19T09:29:58;21.40;99.90
43627;DHT22;29217;52.586;13.442;2023-06-19T09:32:28;21.40;99.90
43627;DHT22;29217;52.586;13.442;2023-06-19T09:34:55;21.50;99.90
43627;DHT22;29217;52.586;13.442;2023-06-19T09:37:28;21.60;99.90
43627;DHT22;29217;52.586;13.442;2023-06-19T09:39:57;21.70;99.90
43627;DHT22;29217;52.586;13.442;2023-06-19T09:42:33;21.70;99.90
43627;DHT22;29217;52.586;13.442;2023-06-19T09:45:07;21.70;99.90
43627;DHT22;29217;52.586;13.442;2023-06-19T09:47:44;21.80;99.90
43627;DHT22;29217;52.586;13.442;2023-06-19T09:50:15;21.80;99.90
43627;DHT22;29217;52.586;13.442;2023-06-19T09:52:42;21.80;99.90
43627;DHT22;29217;52.586;13.442;2023-06-19T09:55:09;21.90;99.90
43627;DHT22;29217;52.586;13.442;2023-06-19T09:57:39;22.00;99.90
43627;DHT22;29217;52.586;13.442;2023-06-19T10:00:06;22.10;99.90
43627;DHT22;29217;52.586;13.442;2023-06-19T10:02:41;22.20;99.90
43627;DHT22;29217;52.586;13.442;2023-06-19T10:05:07;22.30;99.90
43627;DHT22;29217;52.586;13.442;2023-06-19T10:07:42;22.40;99.90
43627;DHT22;29217;52.586;13.442;2023-06-19T10:10:11;22.50;99.90
43627;DHT22;29217;52.586;13.442;2023-06-19T10:12:41;22.60;99.90
43627;DHT22;29217;52.586;13.442;2023-06-19T10:15:20;22.70;99.90
43627;DHT22;29217;52.586;13.442;2023-06-19T10:17:49;22.80;99.90
43627;DHT22;29217;52.586;13.442;2023-06-19T10:20:29;22.80;99.90
43627;DHT22;29217;52.586;13.442;2023-06-19T10:25:45;22.90;99.90
43627;DHT22;29217;52.586;13.442;2023-06-19T10:33:21;23.10;99.90
43627;DHT22;29217;52.586;13.442;2023-06-19T10:35:47;23.30;99.90
43627;DHT22;29217;52.586;13.442;2023-06-19T10:38:15;23.50;99.90
43627;DHT22;29217;52.586;13.442;2023-06-19T10:40:42;23.70;99.90
43627;DHT22;29217;52.586;13.442;2023-06-19T10:43:09;23.70;99.90
43627;DHT22;29217;52.586;13.442;2023-06-19T10:45:35;23.70;99.90
43627;DHT22;29217;52.586;13.442;2023-06-19T10:48:02;23.70;99.90
43627;DHT22;29217;52.586;13.442;2023-06-19T10:50:28;23.80;99.90
43627;DHT22;29217;52.586;13.442;2023-06-19T10:52:54;23.80;99.90
43627;DHT22;29217;52.586;13.442;2023-06-19T10:55:20;23.90;99.90
43627;DHT22;29217;52.586;13.442;2023-06-19T10:57:47;24.00;99.90
43627;DHT22;29217;52.586;13.442;2023-06-19T11:00:28;23.90;99.90
43627;DHT22;29217;52.586;13.442;2023-06-19T11:02:58;23.90;99.90
43627;DHT22;29217;52.586;13.442;2023-06-19T11:05:25;23.90;99.90
43627;DHT22;29217;52.586;13.442;2023-06-19T11:07:58;23.90;99.90
43627;DHT22;29217;52.586;13.442;2023-06-19T11:10:29;24.00;99.90
43627;DHT22;29217;52.586;13.442;2023-06-19T11:12:57;24.00;99.90
43627;DHT22;29217;52.586;13.442;2023-06-19T11:15:32;24.00;99.90
43627;DHT22;29217;52.586;13.442;2023-06-19T11:18:00;24.10;99.90
43627;DHT22;29217;52.586;13.442;2023-06-19T11:20:26;24.20;99.90
43627;DHT22;29217;52.586;13.442;2023-06-19T11:22:56;24.20;99.90
43627;DHT22;29217;52.586;13.442;2023-06-19T11:25:22;24.30;99.90
43627;DHT22;29217;52.586;13.442;2023-06-19T11:27:48;24.60;99.90
43627;DHT22;29217;52.586;13.442;2023-06-19T11:30:18;24.80;99.90
43627;DHT22;29217;52.586;13.442;2023-06-19T11:32:46;25.00;99.90
43627;DHT22;29217;52.586;13.442;2023-06-19T11:35:16;25.20;99.90
43627;DHT22;29217;52.586;13.442;2023-06-19T11:37:43;25.40;99.90
43627;DHT22;29217;52.586;13.442;2023-06-19T11:40:12;25.50;99.90
43627;DHT22;29217;52.586;13.442;2023-06-19T11:42:53;25.70;99.90
43627;DHT22;29217;52.586;13.442;2023-06-19T11:45:19;25.80;99.90
43627;DHT22;29217;52.586;13.442;2023-06-19T11:47:45;25.90;99.90
43627;DHT22;29217;52.586;13.442;2023-06-19T11:50:12;25.90;99.90
43627;DHT22;29217;52.586;13.442;2023-06-19T11:52:39;25.90;99.90
43627;DHT22;29217;52.586;13.442;2023-06-19T11:55:05;26.00;99.90
43627;DHT22;29217;52.586;13.442;2023-06-19T11:57:31;26.10;99.90
43627;DHT22;29217;52.586;13.442;2023-06-19T11:59:58;26.10;99.90
43627;DHT22;29217;52.586;13.442;2023-06-19T12:02:24;26.10;99.90
43627;DHT22;29217;52.586;13.442;2023-06-19T12:04:49;26.20;99.90
43627;DHT22;29217;52.586;13.442;2023-06-19T12:07:15;26.30;99.90
43627;DHT22;29217;52.586;13.442;2023-06-19T12:09:41;26.40;99.90
43627;DHT22;29217;52.586;13.442;2023-06-19T12:12:08;26.60;99.90
43627;DHT22;29217;52.586;13.442;2023-06-19T12:14:34;26.60;99.90
43627;DHT22;29217;52.586;13.442;2023-06-19T12:17:00;26.70;99.90
43627;DHT22;29217;52.586;13.442;2023-06-19T12:19:26;26.80;99.90
43627;DHT22;29217;52.586;13.442;2023-06-19T12:21:53;26.70;99.90
43627;DHT22;29217;52.586;13.442;2023-06-19T12:24:19;26.50;99.90
43627;DHT22;29217;52.586;13.442;2023-06-19T12:26:44;26.50;99.90
43627;DHT22;29217;52.586;13.442;2023-06-19T12:29:10;26.50;99.90
43627;DHT22;29217;52.586;13.442;2023-06-19T12:31:36;26.50;99.90
43627;DHT22;29217;52.586;13.442;2023-06-19T12:34:02;26.60;99.90
43627;DHT22;29217;52.586;13.442;2023-06-19T12:36:28;26.90;99.90
43627;DHT22;29217;52.586;13.442;2023-06-19T12:38:56;27.30;99.90
43627;DHT22;29217;52.586;13.442;2023-06-19T12:41:22;27.70;99.90
43627;DHT22;29217;52.586;13.442;2023-06-19T12:43:48;28.00;99.90
43627;DHT22;29217;52.586;13.442;2023-06-19T12:46:14;28.30;99.90
43627;DHT22;29217;52.586;13.442;2023-06-19T12:48:41;28.60;99.90
43627;DHT22;29217;52.586;13.442;2023-06-19T12:51:07;28.70;99.90
43627;DHT22;29217;52.586;13.442;2023-06-19T12:53:32;28.90;99.90
43627;DHT22;29217;52.586;13.442;2023-06-19T12:55:58;29.10;99.90
43627;DHT22;29217;52.586;13.442;2023-06-19T12:58:24;29.10;99.90
43627;DHT22;29217;52.586;13.442;2023-06-19T13:00:50;29.20;99.90
43627;DHT22;29217;52.586;13.442;2023-06-19T13:03:15;29.20;99.90
43627;DHT22;29217;52.586;13.442;2023-06-19T13:05:41;29.20;99.90
43627;DHT22;29217;52.586;13.442;2023-06-19T13:08:07;28.90;99.90
43627;DHT22;29217;52.586;13.442;2023-06-19T13:10:32;28.70;99.90
43627;DHT22;29217;52.586;13.442;2023-06-19T13:12:58;28.60;99.90
43627;DHT22;29217;52.586;13.442;2023-06-19T13:15:24;28.30;99.90
43627;DHT22;29217;52.586;13.442;2023-06-19T13:17:50;28.10;99.90
43627;DHT22;29217;52.586;13.442;2023-06-19T13:20:16;28.00;99.90
43627;DHT22;29217;52.586;13.442;2023-06-19T13:22:42;28.20;99.90
43627;DHT22;29217;52.586;13.442;2023-06-19T13:25:08;28.50;99.90
43627;DHT22;29217;52.586;13.442;2023-06-19T13:27:34;28.70;99.90
43627;DHT22;29217;52.586;13.442;2023-06-19T13:30:01;29.00;99.90
43627;DHT22;29217;52.586;13.442;2023-06-19T13:32:27;28.90;99.90
43627;DHT22;29217;52.586;13.442;2023-06-19T13:34:52;28.90;99.90
43627;DHT22;29217;52.586;13.442;2023-06-19T13:37:19;28.80;99.90
43627;DHT22;29217;52.586;13.442;2023-06-19T13:39:45;28.70;99.90
43627;DHT22;29217;52.586;13.442;2023-06-19T13:42:11;28.80;99.90
43627;DHT22;29217;52.586;13.442;2023-06-19T13:44:37;29.00;99.90
43627;DHT22;29217;52.586;13.442;2023-06-19T13:47:03;29.00;99.90
43627;DHT22;29217;52.586;13.442;2023-06-19T13:49:29;29.10;99.90
43627;DHT22;29217;52.586;13.442;2023-06-19T13:51:55;29.30;99.90
43627;DHT22;29217;52.586;13.442;2023-06-19T13:54:21;29.50;99.90
43627;DHT22;29217;52.586;13.442;2023-06-19T13:56:47;29.60;99.90
43627;DHT22;29217;52.586;13.442;2023-06-19T13:59:14;29.60;99.90
43627;DHT22;29217;52.586;13.442;2023-06-19T14:01:40;29.60;99.90
43627;DHT22;29217;52.586;13.442;2023-06-19T14:04:06;29.60;99.90
43627;DHT22;29217;52.586;13.442;2023-06-19T14:06:34;29.70;99.90
43627;DHT22;29217;52.586;13.442;2023-06-19T14:08:59;29.70;99.90
43627;DHT22;29217;52.586;13.442;2023-06-19T14:11:25;29.50;99.90
43627;DHT22;29217;52.586;13.442;2023-06-19T14:13:50;29.50;99.90
43627;DHT22;29217;52.586;13.442;2023-06-19T14:16:16;29.30;99.90
43627;DHT22;29217;52.586;13.442;2023-06-19T14:18:42;29.20;99.90
43627;DHT22;29217;52.586;13.442;2023-06-19T14:21:07;29.10;99.90
43627;DHT22;29217;52.586;13.442;2023-06-19T14:23:33;29.20;99.90
43627;DHT22;29217;52.586;13.442;2023-06-19T14:26:04;29.20;99.90
43627;DHT22;29217;52.586;13.442;2023-06-19T14:28:29;29.20;99.90
43627;DHT22;29217;52.586;13.442;2023-06-19T14:30:55;29.10;99.90
43627;DHT22;29217;52.586;13.442;2023-06-19T14:33:20;29.10;99.90
43627;DHT22;29217;52.586;13.442;2023-06-19T14:35:46;29.20;99.90
43627;DHT22;29217;52.586;13.442;2023-06-19T14:38:15;29.10;99.90
43627;DHT22;29217;52.586;13.442;2023-06-19T14:40:41;29.00;99.90
43627;DHT22;29217;52.586;13.442;2023-06-19T14:43:07;28.90;99.90
43627;DHT22;29217;52.586;13.442;2023-06-19T14:45:34;28.70;99.90
43627;DHT22;29217;52.586;13.442;2023-06-19T14:48:00;28.60;99.90
43627;DHT22;29217;52.586;13.442;2023-06-19T14:50:26;28.60;99.90
43627;DHT22;29217;52.586;13.442;2023-06-19T14:52:54;28.70;99.90
43627;DHT22;29217;52.586;13.442;2023-06-19T14:55:20;28.80;99.90
43627;DHT22;29217;52.586;13.442;2023-06-19T14:57:46;28.90;99.90
43627;DHT22;29217;52.586;13.442;2023-06-19T15:00:12;28.90;99.90
43627;DHT22;29217;52.586;13.442;2023-06-19T15:02:37;28.90;99.90
43627;DHT22;29217;52.586;13.442;2023-06-19T15:05:03;28.80;99.90
43627;DHT22;29217;52.586;13.442;2023-06-19T15:07:29;28.70;99.90
43627;DHT22;29217;52.586;13.442;2023-06-19T15:09:54;28.60;99.90
43627;DHT22;29217;52.586;13.442;2023-06-19T15:12:20;28.50;99.90
43627;DHT22;29217;52.586;13.442;2023-06-19T15:14:45;28.40;99.90
43627;DHT22;29217;52.586;13.442;2023-06-19T15:17:11;28.40;99.90
43627;DHT22;29217;52.586;13.442;2023-06-19T15:19:37;28.40;99.90